sensor_id;sensor_type;location;lat;lon;timestamp;temperature;humidity
68189;DHT22;66299;47.514;19.218;2023-12-14T00:01:51;3.53;99.99
68189;DHT22;66299;47.514;19.218;2023-12-14T00:04:20;3.47;99.99
68189;DHT22;66299;47.514;19.218;2023-12-14T00:06:48;3.42;99.99
68189;DHT22;66299;47.514;19.218;2023-12-14T00:09:17;3.43;99.99
68189;DHT22;66299;47.514;19.218;2023-12-14T00:11:48;3.44;99.99
68189;DHT22;66299;47.514;19.218;2023-12-14T00:14:16;3.46;99.99
68189;DHT22;66299;47.514;19.218;2023-12-14T00:16:45;3.50;99.99
68189;DHT22;66299;47.514;19.218;2023-12-14T00:19:15;3.56;99.99
68189;DHT22;66299;47.514;19.218;2023-12-14T00:21:45;3.56;99.99
68189;DHT22;66299;47.514;19.218;2023-12-14T00:24:14;3.59;99.99
68189;DHT22;66299;47.514;19.218;2023-12-14T00:26:43;3.53;99.99
68189;DHT22;66299;47.514;19.218;2023-12-14T00:29:13;3.49;99.99
68189;DHT22;66299;47.514;19.218;2023-12-14T00:31:41;3.39;99.99
68189;DHT22;66299;47.514;19.218;2023-12-14T00:34:10;3.47;99.99
68189;DHT22;66299;47.514;19.218;2023-12-14T00:36:40;3.49;99.99
68189;DHT22;66299;47.514;19.218;2023-12-14T00:39:09;3.49;99.99
68189;DHT22;66299;47.514;19.218;2023-12-14T00:41:37;3.53;99.99
68189;DHT22;66299;47.514;19.218;2023-12-14T00:44:06;3.56;99.99
68189;DHT22;66299;47.514;19.218;2023-12-14T00:46:35;3.63;99.99
68189;DHT22;66299;47.514;19.218;2023-12-14T00:49:04;3.54;99.99
68189;DHT22;66299;47.514;19.218;2023-12-14T00:51:33;3.33;99.99
68189;DHT22;66299;47.514;19.218;2023-12-14T00:54:05;3.42;99.99
68189;DHT22;66299;47.514;19.218;2023-12-14T00:56:34;3.39;99.99
68189;DHT22;66299;47.514;19.218;2023-12-14T00:59:02;3.47;99.99
68189;DHT22;66299;47.514;19.218;2023-12-14T01:01:31;3.56;99.99
68189;DHT22;66299;47.514;19.218;2023-12-14T01:04:02;3.67;99.99
68189;DHT22;66299;47.514;19.218;2023-12-14T01:06:31;3.69;99.99
68189;DHT22;66299;47.514;19.218;2023-12-14T01:09:03;3.75;99.99
68189;DHT22;66299;47.514;19.218;2023-12-14T01:11:31;3.88;99.99
68189;DHT22;66299;47.514;19.218;2023-12-14T01:14:02;3.90;99.99
68189;DHT22;66299;47.514;19.218;2023-12-14T01:16:31;3.88;99.99
68189;DHT22;66299;47.514;19.218;2023-12-14T01:19:01;3.85;99.99
68189;DHT22;66299;47.514;19.218;2023-12-14T01:21:30;3.83;99.99
68189;DHT22;66299;47.514;19.218;2023-12-14T01:23:58;3.75;99.99
68189;DHT22;66299;47.514;19.218;2023-12-14T01:26:30;3.77;99.99
68189;DHT22;66299;47.514;19.218;2023-12-14T01:28:59;3.77;99.99
68189;DHT22;66299;47.514;19.218;2023-12-14T01:31:27;3.75;99.99
68189;DHT22;66299;47.514;19.218;2023-12-14T01:33:56;3.74;99.99
68189;DHT22;66299;47.514;19.218;2023-12-14T01:36:25;3.71;99.99
68189;DHT22;66299;47.514;19.218;2023-12-14T01:38:54;3.74;99.99
68189;DHT22;66299;47.514;19.218;2023-12-14T01:41:23;3.69;99.99
68189;DHT22;66299;47.514;19.218;2023-12-14T01:43:53;3.63;99.99
68189;DHT22;66299;47.514;19.218;2023-12-14T01:46:22;3.64;99.99
68189;DHT22;66299;47.514;19.218;2023-12-14T01:48:51;3.69;99.99
68189;DHT22;66299;47.514;19.218;2023-12-14T01:51:20;3.63;99.99
68189;DHT22;66299;47.514;19.218;2023-12-14T01:53:51;3.66;99.99
68189;DHT22;66299;47.514;19.218;2023-12-14T01:56:19;3.70;99.99
68189;DHT22;66299;47.514;19.218;2023-12-14T01:58:49;3.66;99.99
68189;DHT22;66299;47.514;19.218;2023-12-14T02:01:25;3.64;99.99
68189;DHT22;66299;47.514;19.218;2023-12-14T02:03:56;3.56;99.99
68189;DHT22;66299;47.514;19.218;2023-12-14T02:06:26;3.62;99.99
68189;DHT22;66299;47.514;19.218;2023-12-14T02:08:55;3.62;99.99
68189;DHT22;66299;47.514;19.218;2023-12-14T02:11:23;3.60;99.99
68189;DHT22;66299;47.514;19.218;2023-12-14T02:13:51;3.69;99.99
68189;DHT22;66299;47.514;19.218;2023-12-14T02:16:21;3.80;99.99
68189;DHT22;66299;47.514;19.218;2023-12-14T02:18:50;3.77;99.99
68189;DHT22;66299;47.514;19.218;2023-12-14T02:21:18;3.67;99.99
68189;DHT22;66299;47.514;19.218;2023-12-14T02:23:49;3.67;99.99
68189;DHT22;66299;47.514;19.218;2023-12-14T02:26:17;3.63;99.99
68189;DHT22;66299;47.514;19.218;2023-12-14T02:28:47;3.67;99.99
68189;DHT22;66299;47.514;19.218;2023-12-14T02:31:19;3.62;99.99
68189;DHT22;66299;47.514;19.218;2023-12-14T02:33:48;3.63;99.99
68189;DHT22;66299;47.514;19.218;2023-12-14T02:36:17;3.70;99.99
68189;DHT22;66299;47.514;19.218;2023-12-14T02:38:45;3.70;99.99
68189;DHT22;66299;47.514;19.218;2023-12-14T02:41:18;3.78;99.99
68189;DHT22;66299;47.514;19.218;2023-12-14T02:43:47;3.88;99.99
68189;DHT22;66299;47.514;19.218;2023-12-14T02:46:16;3.83;99.99
68189;DHT22;66299;47.514;19.218;2023-12-14T02:48:45;3.93;99.99
68189;DHT22;66299;47.514;19.218;2023-12-14T02:51:14;3.98;99.99
68189;DHT22;66299;47.514;19.218;2023-12-14T02:53:42;4.04;99.99
68189;DHT22;66299;47.514;19.218;2023-12-14T02:56:11;4.14;99.99
68189;DHT22;66299;47.514;19.218;2023-12-14T02:58:41;4.19;99.99
68189;DHT22;66299;47.514;19.218;2023-12-14T03:01:11;4.23;99.99
68189;DHT22;66299;47.514;19.218;2023-12-14T03:03:39;4.16;99.99
68189;DHT22;66299;47.514;19.218;2023-12-14T03:06:09;4.19;99.99
68189;DHT22;66299;47.514;19.218;2023-12-14T03:08:37;4.14;99.99
68189;DHT22;66299;47.514;19.218;2023-12-14T03:11:05;4.12;99.99
68189;DHT22;66299;47.514;19.218;2023-12-14T03:13:33;4.09;99.99
68189;DHT22;66299;47.514;19.218;2023-12-14T03:16:05;4.09;99.99
68189;DHT22;66299;47.514;19.218;2023-12-14T03:18:34;4.11;99.99
68189;DHT22;66299;47.514;19.218;2023-12-14T03:21:04;4.12;99.99
68189;DHT22;66299;47.514;19.218;2023-12-14T03:23:32;4.12;99.99
68189;DHT22;66299;47.514;19.218;2023-12-14T03:26:02;4.14;99.99
68189;DHT22;66299;47.514;19.218;2023-12-14T03:28:32;4.15;99.99
68189;DHT22;66299;47.514;19.218;2023-12-14T03:31:01;4.16;99.99
68189;DHT22;66299;47.514;19.218;2023-12-14T03:33:31;4.16;99.99
68189;DHT22;66299;47.514;19.218;2023-12-14T03:35:59;4.18;99.99
68189;DHT22;66299;47.514;19.218;2023-12-14T03:38:28;4.09;99.99
68189;DHT22;66299;47.514;19.218;2023-12-14T03:40:56;4.15;99.99
68189;DHT22;66299;47.514;19.218;2023-12-14T03:43:24;4.14;99.99
68189;DHT22;66299;47.514;19.218;2023-12-14T03:45:53;4.22;99.99
68189;DHT22;66299;47.514;19.218;2023-12-14T03:48:22;4.22;99.99
68189;DHT22;66299;47.514;19.218;2023-12-14T03:50:52;4.21;99.99
68189;DHT22;66299;47.514;19.218;2023-12-14T03:53:20;4.19;99.99
68189;DHT22;66299;47.514;19.218;2023-12-14T03:55:49;4.19;99.99
68189;DHT22;66299;47.514;19.218;2023-12-14T03:58:18;4.12;99.99
68189;DHT22;66299;47.514;19.218;2023-12-14T04:00:46;4.15;99.99
68189;DHT22;66299;47.514;19.218;2023-12-14T04:03:15;4.14;99.99
68189;DHT22;66299;47.514;19.218;2023-12-14T04:05:44;4.15;99.99
68189;DHT22;66299;47.514;19.218;2023-12-14T04:08:14;4.18;99.99
68189;DHT22;66299;47.514;19.218;2023-12-14T04:10:43;4.16;99.99
68189;DHT22;66299;47.514;19.218;2023-12-14T04:13:13;4.15;99.99
68189;DHT22;66299;47.514;19.218;2023-12-14T04:15:43;4.11;99.99
68189;DHT22;66299;47.514;19.218;2023-12-14T04:18:13;4.14;99.99
68189;DHT22;66299;47.514;19.218;2023-12-14T04:20:42;4.14;99.99
68189;DHT22;66299;47.514;19.218;2023-12-14T04:23:11;4.12;99.99
68189;DHT22;66299;47.514;19.218;2023-12-14T04:25:41;4.11;99.99
68189;DHT22;66299;47.514;19.218;2023-12-14T04:28:10;4.08;99.99
68189;DHT22;66299;47.514;19.218;2023-12-14T04:30:38;4.04;99.99
68189;DHT22;66299;47.514;19.218;2023-12-14T04:33:07;4.01;99.99
68189;DHT22;66299;47.514;19.218;2023-12-14T04:35:37;4.01;99.99
68189;DHT22;66299;47.514;19.218;2023-12-14T04:38:07;3.95;99.99
68189;DHT22;66299;47.514;19.218;2023-12-14T04:40:35;3.91;99.99
68189;DHT22;66299;47.514;19.218;2023-12-14T04:43:07;3.93;99.99
68189;DHT22;66299;47.514;19.218;2023-12-14T04:45:36;3.95;99.99
68189;DHT22;66299;47.514;19.218;2023-12-14T04:48:05;3.98;99.99
68189;DHT22;66299;47.514;19.218;2023-12-14T04:50:34;3.95;99.99
68189;DHT22;66299;47.514;19.218;2023-12-14T04:53:02;3.95;99.99
68189;DHT22;66299;47.514;19.218;2023-12-14T04:55:32;3.95;99.99
68189;DHT22;66299;47.514;19.218;2023-12-14T04:58:01;3.94;99.99
68189;DHT22;66299;47.514;19.218;2023-12-14T05:00:31;3.87;99.99
68189;DHT22;66299;47.514;19.218;2023-12-14T05:03:01;3.84;99.99
68189;DHT22;66299;47.514;19.218;2023-12-14T05:05:29;3.81;99.99
68189;DHT22;66299;47.514;19.218;2023-12-14T05:07:58;3.78;99.99
68189;DHT22;66299;47.514;19.218;2023-12-14T05:10:26;3.80;99.99
68189;DHT22;66299;47.514;19.218;2023-12-14T05:12:54;3.81;99.99
68189;DHT22;66299;47.514;19.218;2023-12-14T05:15:23;3.83;99.99
68189;DHT22;66299;47.514;19.218;2023-12-14T05:17:55;3.78;99.99
68189;DHT22;66299;47.514;19.218;2023-12-14T05:20:24;3.81;99.99
68189;DHT22;66299;47.514;19.218;2023-12-14T05:22:52;3.81;99.99
68189;DHT22;66299;47.514;19.218;2023-12-14T05:25:21;3.77;99.99
68189;DHT22;66299;47.514;19.218;2023-12-14T05:27:50;3.78;99.99
68189;DHT22;66299;47.514;19.218;2023-12-14T05:30:18;3.77;99.99
68189;DHT22;66299;47.514;19.218;2023-12-14T05:32:47;3.77;99.99
68189;DHT22;66299;47.514;19.218;2023-12-14T05:35:19;3.69;99.99
68189;DHT22;66299;47.514;19.218;2023-12-14T05:37:48;3.70;99.99
68189;DHT22;66299;47.514;19.218;2023-12-14T05:40:16;3.70;99.99
68189;DHT22;66299;47.514;19.218;2023-12-14T05:42:45;3.78;99.99
68189;DHT22;66299;47.514;19.218;2023-12-14T05:45:14;3.80;99.99
68189;DHT22;66299;47.514;19.218;2023-12-14T05:47:42;3.81;99.99
68189;DHT22;66299;47.514;19.218;2023-12-14T05:50:11;3.83;99.99
68189;DHT22;66299;47.514;19.218;2023-12-14T05:52:42;3.80;99.99
68189;DHT22;66299;47.514;19.218;2023-12-14T05:55:13;3.77;99.99
68189;DHT22;66299;47.514;19.218;2023-12-14T05:57:42;3.81;99.99
68189;DHT22;66299;47.514;19.218;2023-12-14T06:00:12;3.78;99.99
68189;DHT22;66299;47.514;19.218;2023-12-14T06:02:41;3.77;99.99
68189;DHT22;66299;47.514;19.218;2023-12-14T06:05:11;3.81;99.99
68189;DHT22;66299;47.514;19.218;2023-12-14T06:07:39;3.78;99.99
68189;DHT22;66299;47.514;19.218;2023-12-14T06:10:11;3.78;99.99
68189;DHT22;66299;47.514;19.218;2023-12-14T06:12:40;3.81;99.99
68189;DHT22;66299;47.514;19.218;2023-12-14T06:15:10;3.77;99.99
68189;DHT22;66299;47.514;19.218;2023-12-14T06:17:39;3.80;99.99
68189;DHT22;66299;47.514;19.218;2023-12-14T06:20:11;3.84;99.99
68189;DHT22;66299;47.514;19.218;2023-12-14T06:22:41;3.83;99.99
68189;DHT22;66299;47.514;19.218;2023-12-14T06:25:11;3.78;99.99
68189;DHT22;66299;47.514;19.218;2023-12-14T06:27:42;3.80;99.99
68189;DHT22;66299;47.514;19.218;2023-12-14T06:30:12;3.83;99.99
68189;DHT22;66299;47.514;19.218;2023-12-14T06:32:41;3.80;99.99
68189;DHT22;66299;47.514;19.218;2023-12-14T06:35:11;3.77;99.99
68189;DHT22;66299;47.514;19.218;2023-12-14T06:37:41;3.74;99.99
68189;DHT22;66299;47.514;19.218;2023-12-14T06:40:12;3.81;99.99
68189;DHT22;66299;47.514;19.218;2023-12-14T06:42:41;3.77;99.99
68189;DHT22;66299;47.514;19.218;2023-12-14T06:45:11;3.78;99.99
68189;DHT22;66299;47.514;19.218;2023-12-14T06:47:39;3.78;99.99
68189;DHT22;66299;47.514;19.218;2023-12-14T06:50:10;3.80;99.99
68189;DHT22;66299;47.514;19.218;2023-12-14T06:52:39;3.77;99.99
68189;DHT22;66299;47.514;19.218;2023-12-14T06:55:08;3.78;99.99
68189;DHT22;66299;47.514;19.218;2023-12-14T06:57:39;3.83;99.99
68189;DHT22;66299;47.514;19.218;2023-12-14T07:00:08;3.83;99.99
68189;DHT22;66299;47.514;19.218;2023-12-14T07:02:37;3.80;99.99
68189;DHT22;66299;47.514;19.218;2023-12-14T07:05:06;3.84;99.99
68189;DHT22;66299;47.514;19.218;2023-12-14T07:07:35;3.83;99.99
68189;DHT22;66299;47.514;19.218;2023-12-14T07:10:04;3.83;99.99
68189;DHT22;66299;47.514;19.218;2023-12-14T07:12:33;3.87;99.99
68189;DHT22;66299;47.514;19.218;2023-12-14T07:15:05;3.94;99.99
68189;DHT22;66299;47.514;19.218;2023-12-14T07:17:34;3.90;99.99
68189;DHT22;66299;47.514;19.218;2023-12-14T07:20:04;3.99;99.99
68189;DHT22;66299;47.514;19.218;2023-12-14T07:22:34;3.98;99.99
68189;DHT22;66299;47.514;19.218;2023-12-14T07:25:04;3.98;99.99
68189;DHT22;66299;47.514;19.218;2023-12-14T07:27:32;3.97;99.99
68189;DHT22;66299;47.514;19.218;2023-12-14T07:30:04;3.95;99.99
68189;DHT22;66299;47.514;19.218;2023-12-14T07:32:32;3.99;99.99
68189;DHT22;66299;47.514;19.218;2023-12-14T07:35:01;4.02;99.99
68189;DHT22;66299;47.514;19.218;2023-12-14T07:37:29;4.06;99.99
68189;DHT22;66299;47.514;19.218;2023-12-14T07:39:58;4.04;99.99
68189;DHT22;66299;47.514;19.218;2023-12-14T07:42:29;4.06;99.99
68189;DHT22;66299;47.514;19.218;2023-12-14T07:44:57;4.06;99.99
68189;DHT22;66299;47.514;19.218;2023-12-14T07:47:28;4.12;99.99
68189;DHT22;66299;47.514;19.218;2023-12-14T07:49:57;4.16;99.99
68189;DHT22;66299;47.514;19.218;2023-12-14T07:52:26;4.15;99.99
68189;DHT22;66299;47.514;19.218;2023-12-14T07:54:55;4.16;99.99
68189;DHT22;66299;47.514;19.218;2023-12-14T07:57:25;4.21;99.99
68189;DHT22;66299;47.514;19.218;2023-12-14T07:59:54;4.21;99.99
68189;DHT22;66299;47.514;19.218;2023-12-14T08:02:22;4.23;99.99
68189;DHT22;66299;47.514;19.218;2023-12-14T08:04:53;4.29;99.99
68189;DHT22;66299;47.514;19.218;2023-12-14T08:07:22;4.25;99.99
68189;DHT22;66299;47.514;19.218;2023-12-14T08:09:55;4.25;99.99
68189;DHT22;66299;47.514;19.218;2023-12-14T08:12:25;4.35;99.99
68189;DHT22;66299;47.514;19.218;2023-12-14T08:14:55;4.31;99.99
68189;DHT22;66299;47.514;19.218;2023-12-14T08:17:24;4.38;99.99
68189;DHT22;66299;47.514;19.218;2023-12-14T08:19:57;4.41;99.99
68189;DHT22;66299;47.514;19.218;2023-12-14T08:22:26;4.42;99.99
68189;DHT22;66299;47.514;19.218;2023-12-14T08:24:55;4.49;99.99
68189;DHT22;66299;47.514;19.218;2023-12-14T08:27:23;4.54;99.99
68189;DHT22;66299;47.514;19.218;2023-12-14T08:29:51;4.56;99.99
68189;DHT22;66299;47.514;19.218;2023-12-14T08:32:20;4.56;99.99
68189;DHT22;66299;47.514;19.218;2023-12-14T08:34:49;4.67;99.99
68189;DHT22;66299;47.514;19.218;2023-12-14T08:37:23;4.59;99.99
68189;DHT22;66299;47.514;19.218;2023-12-14T08:39:52;4.64;99.99
68189;DHT22;66299;47.514;19.218;2023-12-14T08:42:22;4.63;99.99
68189;DHT22;66299;47.514;19.218;2023-12-14T08:44:51;4.63;99.99
68189;DHT22;66299;47.514;19.218;2023-12-14T08:47:22;4.71;99.99
68189;DHT22;66299;47.514;19.218;2023-12-14T08:49:52;4.74;99.99
68189;DHT22;66299;47.514;19.218;2023-12-14T08:52:23;4.81;99.99
68189;DHT22;66299;47.514;19.218;2023-12-14T08:54:52;4.85;99.99
68189;DHT22;66299;47.514;19.218;2023-12-14T08:57:21;4.85;99.99
68189;DHT22;66299;47.514;19.218;2023-12-14T08:59:49;4.90;99.99
68189;DHT22;66299;47.514;19.218;2023-12-14T09:02:18;4.91;99.99
68189;DHT22;66299;47.514;19.218;2023-12-14T09:04:46;4.92;99.99
68189;DHT22;66299;47.514;19.218;2023-12-14T09:07:15;4.98;99.99
68189;DHT22;66299;47.514;19.218;2023-12-14T09:09:46;5.01;99.99
68189;DHT22;66299;47.514;19.218;2023-12-14T09:12:15;5.01;99.99
68189;DHT22;66299;47.514;19.218;2023-12-14T09:14:44;5.11;99.99
68189;DHT22;66299;47.514;19.218;2023-12-14T09:17:14;5.04;99.99
68189;DHT22;66299;47.514;19.218;2023-12-14T09:19:42;5.18;99.99
68189;DHT22;66299;47.514;19.218;2023-12-14T09:22:12;5.34;99.99
68189;DHT22;66299;47.514;19.218;2023-12-14T09:24:41;5.27;99.99
68189;DHT22;66299;47.514;19.218;2023-12-14T09:27:11;5.27;99.99
68189;DHT22;66299;47.514;19.218;2023-12-14T09:29:40;5.42;99.99
68189;DHT22;66299;47.514;19.218;2023-12-14T09:32:08;5.43;99.99
68189;DHT22;66299;47.514;19.218;2023-12-14T09:34:37;5.48;99.99
68189;DHT22;66299;47.514;19.218;2023-12-14T09:37:06;5.49;99.99
68189;DHT22;66299;47.514;19.218;2023-12-14T09:39:34;5.59;99.99
68189;DHT22;66299;47.514;19.218;2023-12-14T09:42:04;5.46;99.99
68189;DHT22;66299;47.514;19.218;2023-12-14T09:44:37;5.46;99.99
68189;DHT22;66299;47.514;19.218;2023-12-14T09:47:06;5.42;99.99
68189;DHT22;66299;47.514;19.218;2023-12-14T09:49:35;5.49;99.99
68189;DHT22;66299;47.514;19.218;2023-12-14T09:52:05;5.53;99.99
68189;DHT22;66299;47.514;19.218;2023-12-14T09:54:33;5.53;99.99
68189;DHT22;66299;47.514;19.218;2023-12-14T09:57:02;5.56;99.99
68189;DHT22;66299;47.514;19.218;2023-12-14T09:59:31;5.62;99.99
68189;DHT22;66299;47.514;19.218;2023-12-14T10:02:11;5.73;99.99
68189;DHT22;66299;47.514;19.218;2023-12-14T10:04:42;5.70;99.99
68189;DHT22;66299;47.514;19.218;2023-12-14T10:07:11;5.66;99.99
68189;DHT22;66299;47.514;19.218;2023-12-14T10:09:43;5.76;99.99
68189;DHT22;66299;47.514;19.218;2023-12-14T10:12:12;5.89;99.99
68189;DHT22;66299;47.514;19.218;2023-12-14T10:14:41;5.81;99.99
68189;DHT22;66299;47.514;19.218;2023-12-14T10:17:17;5.83;99.99
68189;DHT22;66299;47.514;19.218;2023-12-14T10:22:35;5.87;99.99
68189;DHT22;66299;47.514;19.218;2023-12-14T10:31:00;6.11;99.99
68189;DHT22;66299;47.514;19.218;2023-12-14T10:33:31;6.22;99.99
68189;DHT22;66299;47.514;19.218;2023-12-14T10:36:00;6.27;99.99
68189;DHT22;66299;47.514;19.218;2023-12-14T10:38:29;6.34;99.99
68189;DHT22;66299;47.514;19.218;2023-12-14T10:40:59;6.45;99.99
68189;DHT22;66299;47.514;19.218;2023-12-14T10:43:29;6.53;99.99
68189;DHT22;66299;47.514;19.218;2023-12-14T10:46:15;6.48;99.99
68189;DHT22;66299;47.514;19.218;2023-12-14T10:48:47;6.57;99.99
68189;DHT22;66299;47.514;19.218;2023-12-14T10:51:18;6.42;99.78
68189;DHT22;66299;47.514;19.218;2023-12-14T10:53:48;6.44;98.33
68189;DHT22;66299;47.514;19.218;2023-12-14T10:56:19;6.53;99.30
68189;DHT22;66299;47.514;19.218;2023-12-14T10:58:50;6.71;99.85
68189;DHT22;66299;47.514;19.218;2023-12-14T11:01:20;6.62;99.06
68189;DHT22;66299;47.514;19.218;2023-12-14T11:03:54;6.53;98.75
68189;DHT22;66299;47.514;19.218;2023-12-14T11:06:29;6.52;98.97
68189;DHT22;66299;47.514;19.218;2023-12-14T11:09:00;6.50;99.23
68189;DHT22;66299;47.514;19.218;2023-12-14T11:11:40;6.57;99.83
68189;DHT22;66299;47.514;19.218;2023-12-14T11:14:11;6.59;99.40
68189;DHT22;66299;47.514;19.218;2023-12-14T11:16:42;6.68;99.99
68189;DHT22;66299;47.514;19.218;2023-12-14T11:19:30;6.56;99.13
68189;DHT22;66299;47.514;19.218;2023-12-14T11:22:23;6.64;99.37
68189;DHT22;66299;47.514;19.218;2023-12-14T11:24:54;6.68;99.99
68189;DHT22;66299;47.514;19.218;2023-12-14T11:27:27;6.68;99.57
68189;DHT22;66299;47.514;19.218;2023-12-14T11:29:57;6.72;99.92
68189;DHT22;66299;47.514;19.218;2023-12-14T11:32:27;6.68;99.58
68189;DHT22;66299;47.514;19.218;2023-12-14T11:34:58;6.71;99.79
68189;DHT22;66299;47.514;19.218;2023-12-14T11:37:28;6.73;99.58
68189;DHT22;66299;47.514;19.218;2023-12-14T11:39:57;6.66;99.99
68189;DHT22;66299;47.514;19.218;2023-12-14T11:42:25;6.76;99.99
68189;DHT22;66299;47.514;19.218;2023-12-14T11:44:58;6.79;99.99
68189;DHT22;66299;47.514;19.218;2023-12-14T11:47:29;6.79;99.70
68189;DHT22;66299;47.514;19.218;2023-12-14T11:50:00;6.80;99.99
68189;DHT22;66299;47.514;19.218;2023-12-14T11:52:31;6.82;99.54
68189;DHT22;66299;47.514;19.218;2023-12-14T11:55:00;6.77;99.89
68189;DHT22;66299;47.514;19.218;2023-12-14T11:57:29;6.76;99.81
68189;DHT22;66299;47.514;19.218;2023-12-14T11:59:59;6.82;99.56
68189;DHT22;66299;47.514;19.218;2023-12-14T12:02:27;6.86;99.73
68189;DHT22;66299;47.514;19.218;2023-12-14T12:04:56;6.80;99.03
68189;DHT22;66299;47.514;19.218;2023-12-14T12:07:27;6.86;99.94
68189;DHT22;66299;47.514;19.218;2023-12-14T12:09:55;6.85;99.99
68189;DHT22;66299;47.514;19.218;2023-12-14T12:12:24;6.92;99.99
68189;DHT22;66299;47.514;19.218;2023-12-14T12:14:52;6.96;99.65
68189;DHT22;66299;47.514;19.218;2023-12-14T12:17:21;7.03;99.65
68189;DHT22;66299;47.514;19.218;2023-12-14T12:19:51;6.90;98.27
68189;DHT22;66299;47.514;19.218;2023-12-14T12:22:20;6.99;99.01
68189;DHT22;66299;47.514;19.218;2023-12-14T12:24:50;7.06;98.75
68189;DHT22;66299;47.514;19.218;2023-12-14T12:27:34;7.06;99.54
68189;DHT22;66299;47.514;19.218;2023-12-14T12:30:07;7.07;98.66
68189;DHT22;66299;47.514;19.218;2023-12-14T12:32:36;7.00;97.93
68189;DHT22;66299;47.514;19.218;2023-12-14T12:35:07;7.08;97.61
68189;DHT22;66299;47.514;19.218;2023-12-14T12:37:35;7.06;98.34
68189;DHT22;66299;47.514;19.218;2023-12-14T12:40:09;7.00;97.96
68189;DHT22;66299;47.514;19.218;2023-12-14T12:42:39;7.04;97.23
68189;DHT22;66299;47.514;19.218;2023-12-14T12:45:08;7.00;96.66
68189;DHT22;66299;47.514;19.218;2023-12-14T12:47:38;7.01;96.39
68189;DHT22;66299;47.514;19.218;2023-12-14T12:50:08;7.03;96.66
68189;DHT22;66299;47.514;19.218;2023-12-14T12:52:37;7.00;97.88
68189;DHT22;66299;47.514;19.218;2023-12-14T12:55:09;7.10;96.15
68189;DHT22;66299;47.514;19.218;2023-12-14T12:57:38;7.10;96.71
68189;DHT22;66299;47.514;19.218;2023-12-14T13:00:08;7.06;97.57
68189;DHT22;66299;47.514;19.218;2023-12-14T13:02:39;7.06;96.84
68189;DHT22;66299;47.514;19.218;2023-12-14T13:05:09;7.15;96.48
68189;DHT22;66299;47.514;19.218;2023-12-14T13:07:45;7.17;96.52
68189;DHT22;66299;47.514;19.218;2023-12-14T13:10:16;7.15;96.44
68189;DHT22;66299;47.514;19.218;2023-12-14T13:12:57;7.25;96.18
68189;DHT22;66299;47.514;19.218;2023-12-14T13:15:27;7.25;96.63
68189;DHT22;66299;47.514;19.218;2023-12-14T13:17:58;7.27;96.87
68189;DHT22;66299;47.514;19.218;2023-12-14T13:20:28;7.27;95.98
68189;DHT22;66299;47.514;19.218;2023-12-14T13:22:58;7.34;95.69
68189;DHT22;66299;47.514;19.218;2023-12-14T13:25:28;7.25;95.57
68189;DHT22;66299;47.514;19.218;2023-12-14T13:27:57;7.36;95.44
68189;DHT22;66299;47.514;19.218;2023-12-14T13:30:25;7.34;94.88
68189;DHT22;66299;47.514;19.218;2023-12-14T13:32:55;7.32;95.36
68189;DHT22;66299;47.514;19.218;2023-12-14T13:35:24;7.23;96.33
68189;DHT22;66299;47.514;19.218;2023-12-14T13:37:52;7.28;95.80
68189;DHT22;66299;47.514;19.218;2023-12-14T13:40:22;7.38;94.65
68189;DHT22;66299;47.514;19.218;2023-12-14T13:42:54;7.35;94.89
68189;DHT22;66299;47.514;19.218;2023-12-14T13:45:33;7.40;94.98
68189;DHT22;66299;47.514;19.218;2023-12-14T13:48:02;7.36;94.93
68189;DHT22;66299;47.514;19.218;2023-12-14T13:50:31;7.34;95.08
68189;DHT22;66299;47.514;19.218;2023-12-14T13:52:59;7.31;95.15
68189;DHT22;66299;47.514;19.218;2023-12-14T13:55:29;7.24;96.09
68189;DHT22;66299;47.514;19.218;2023-12-14T13:58:00;7.14;96.40
68189;DHT22;66299;47.514;19.218;2023-12-14T14:00:30;7.14;96.15
68189;DHT22;66299;47.514;19.218;2023-12-14T14:03:03;7.15;96.06
68189;DHT22;66299;47.514;19.218;2023-12-14T14:05:32;7.07;96.21
68189;DHT22;66299;47.514;19.218;2023-12-14T14:08:00;6.87;97.08
68189;DHT22;66299;47.514;19.218;2023-12-14T14:10:29;7.03;95.86
68189;DHT22;66299;47.514;19.218;2023-12-14T14:12:58;7.06;95.41
68189;DHT22;66299;47.514;19.218;2023-12-14T14:15:28;6.94;95.88
68189;DHT22;66299;47.514;19.218;2023-12-14T14:17:57;6.83;96.39
68189;DHT22;66299;47.514;19.218;2023-12-14T14:20:27;6.77;96.67
68189;DHT22;66299;47.514;19.218;2023-12-14T14:22:56;6.76;96.65
68189;DHT22;66299;47.514;19.218;2023-12-14T14:25:26;6.86;95.83
68189;DHT22;66299;47.514;19.218;2023-12-14T14:27:54;6.59;97.26
68189;DHT22;66299;47.514;19.218;2023-12-14T14:30:27;6.75;96.71
68189;DHT22;66299;47.514;19.218;2023-12-14T14:32:56;6.52;97.28
68189;DHT22;66299;47.514;19.218;2023-12-14T14:35:24;6.64;96.82
68189;DHT22;66299;47.514;19.218;2023-12-14T14:37:53;6.53;97.12
68189;DHT22;66299;47.514;19.218;2023-12-14T14:40:22;6.53;97.15
68189;DHT22;66299;47.514;19.218;2023-12-14T14:42:51;6.57;96.69
68189;DHT22;66299;47.514;19.218;2023-12-14T14:45:20;6.56;96.68
68189;DHT22;66299;47.514;19.218;2023-12-14T14:47:53;6.44;97.29
68189;DHT22;66299;47.514;19.218;2023-12-14T14:50:26;6.44;97.65
68189;DHT22;66299;47.514;19.218;2023-12-14T14:52:55;6.35;97.44
68189;DHT22;66299;47.514;19.218;2023-12-14T14:55:23;6.13;98.43
68189;DHT22;66299;47.514;19.218;2023-12-14T14:57:53;6.28;98.34
68189;DHT22;66299;47.514;19.218;2023-12-14T15:00:21;6.13;98.53
68189;DHT22;66299;47.514;19.218;2023-12-14T15:02:53;6.00;98.55
68189;DHT22;66299;47.514;19.218;2023-12-14T15:05:22;5.97;98.57
68189;DHT22;66299;47.514;19.218;2023-12-14T15:07:51;5.83;99.20
68189;DHT22;66299;47.514;19.218;2023-12-14T15:10:19;5.74;99.54
68189;DHT22;66299;47.514;19.218;2023-12-14T15:12:48;5.80;99.62
68189;DHT22;66299;47.514;19.218;2023-12-14T15:15:19;5.63;99.99
68189;DHT22;66299;47.514;19.218;2023-12-14T15:17:47;5.63;99.99
68189;DHT22;66299;47.514;19.218;2023-12-14T15:20:20;5.62;99.99
68189;DHT22;66299;47.514;19.218;2023-12-14T15:22:50;5.59;99.99
68189;DHT22;66299;47.514;19.218;2023-12-14T15:25:19;5.66;99.99
68189;DHT22;66299;47.514;19.218;2023-12-14T15:27:48;5.52;99.99
68189;DHT22;66299;47.514;19.218;2023-12-14T15:30:17;5.56;99.99
68189;DHT22;66299;47.514;19.218;2023-12-14T15:32:46;5.70;99.99
68189;DHT22;66299;47.514;19.218;2023-12-14T15:35:15;5.50;99.99
68189;DHT22;66299;47.514;19.218;2023-12-14T15:37:45;5.53;99.99
68189;DHT22;66299;47.514;19.218;2023-12-14T15:40:14;5.65;99.83
68189;DHT22;66299;47.514;19.218;2023-12-14T15:42:42;5.58;99.99
68189;DHT22;66299;47.514;19.218;2023-12-14T15:45:11;5.39;99.99
68189;DHT22;66299;47.514;19.218;2023-12-14T15:47:40;5.62;99.99
68189;DHT22;66299;47.514;19.218;2023-12-14T15:50:09;5.60;99.99
68189;DHT22;66299;47.514;19.218;2023-12-14T15:52:38;5.69;99.93
68189;DHT22;66299;47.514;19.218;2023-12-14T15:55:08;5.58;99.99